createdAt,value
2018-02-20T00:01:54.134Z,89.70
2018-02-20T00:04:20.553Z,90.00
2018-02-20T00:06:47.118Z,89.30
2018-02-20T00:09:13.990Z,88.80
2018-02-20T00:11:40.527Z,88.80
2018-02-20T00:14:07.055Z,89.10
2018-02-20T00:16:33.541Z,89.40
2018-02-20T00:19:00.045Z,89.60
2018-02-20T00:21:26.654Z,89.50
2018-02-20T00:23:53.217Z,89.50
2018-02-20T00:26:19.752Z,88.70
2018-02-20T00:28:46.266Z,89.10
2018-02-20T00:31:13.113Z,90.00
2018-02-20T00:33:39.604Z,90.00
2018-02-20T00:36:06.088Z,90.20
2018-02-20T00:38:33.002Z,90.00
2018-02-20T00:40:59.459Z,88.50
2018-02-20T00:43:26.682Z,89.00
2018-02-20T00:45:53.161Z,89.00
2018-02-20T00:48:19.743Z,89.50
2018-02-20T00:53:19.973Z,89.30
2018-02-20T00:55:46.659Z,89.30
2018-02-20T00:58:13.113Z,89.10
2018-02-20T01:00:39.648Z,88.70
2018-02-20T01:03:06.122Z,89.40
2018-02-20T01:05:32.640Z,89.20
2018-02-20T01:07:59.117Z,89.40
2018-02-20T01:10:25.623Z,89.00
2018-02-20T01:12:52.300Z,89.20
2018-02-20T01:15:19.622Z,89.30
2018-02-20T01:17:46.253Z,89.20
2018-02-20T01:20:12.781Z,88.80
2018-02-20T01:22:39.293Z,89.20
2018-02-20T01:25:05.787Z,88.70
2018-02-20T01:27:33.025Z,89.60
2018-02-20T01:29:59.507Z,89.60
2018-02-20T01:32:26.973Z,89.60
2018-02-20T01:34:53.407Z,89.50
2018-02-20T01:37:20.080Z,89.70
2018-02-20T01:39:46.764Z,89.40
2018-02-20T01:42:13.278Z,89.20
2018-02-20T01:44:39.786Z,89.70
2018-02-20T01:47:06.282Z,90.00
2018-02-20T01:49:32.716Z,89.60
2018-02-20T01:51:59.195Z,90.00
2018-02-20T01:54:25.641Z,89.70
2018-02-20T01:56:52.053Z,90.00
2018-02-20T01:59:18.503Z,90.30
2018-02-20T02:01:45.041Z,90.10
2018-02-20T02:04:11.460Z,90.20
2018-02-20T02:06:37.999Z,90.00
2018-02-20T02:09:05.269Z,90.00
2018-02-20T02:11:31.776Z,90.00
2018-02-20T02:13:58.294Z,90.00
2018-02-20T02:16:24.752Z,89.40
2018-02-20T02:18:51.251Z,89.80
2018-02-20T02:21:17.763Z,89.20
2018-02-20T02:23:45.168Z,90.20
2018-02-20T02:26:11.662Z,90.10
2018-02-20T02:28:38.568Z,90.40
2018-02-20T02:31:05.118Z,90.00
2018-02-20T02:33:31.557Z,90.00
2018-02-20T02:35:58.156Z,90.20
2018-02-20T02:38:24.733Z,90.10
2018-02-20T02:40:51.229Z,90.30
2018-02-20T02:43:17.753Z,90.00
2018-02-20T02:45:44.384Z,90.00
2018-02-20T02:48:12.211Z,90.10
2018-02-20T02:50:40.471Z,90.00
2018-02-20T02:53:06.912Z,90.00
2018-02-20T02:55:33.369Z,89.90
2018-02-20T02:58:00.608Z,90.20
2018-02-20T03:00:27.110Z,90.20
2018-02-20T03:02:53.597Z,90.10
2018-02-20T03:05:20.503Z,90.30
2018-02-20T03:07:46.976Z,90.00
2018-02-20T03:10:13.430Z,90.00
2018-02-20T03:12:40.217Z,90.20
2018-02-20T03:15:06.759Z,90.10
2018-02-20T03:17:33.242Z,90.40
2018-02-20T03:19:59.775Z,90.10
2018-02-20T03:22:26.185Z,90.20
2018-02-20T03:24:53.407Z,90.00
2018-02-20T03:27:20.379Z,90.00
2018-02-20T03:29:47.657Z,90.20
2018-02-20T03:32:14.143Z,90.20
2018-02-20T03:34:41.097Z,90.40
2018-02-20T03:37:07.629Z,90.20
2018-02-20T03:39:34.809Z,90.50
2018-02-20T03:42:01.821Z,90.40
2018-02-20T03:44:28.387Z,90.40
2018-02-20T03:46:55.338Z,90.50
2018-02-20T03:49:22.815Z,90.50
2018-02-20T03:51:49.256Z,90.50
2018-02-20T03:54:15.717Z,90.60
2018-02-20T03:56:42.300Z,90.50
2018-02-20T03:59:10.031Z,90.30
2018-02-20T04:01:36.821Z,90.30
2018-02-20T04:04:03.286Z,90.60
2018-02-20T04:06:29.803Z,90.60
2018-02-20T04:08:56.287Z,90.70
2018-02-20T04:11:23.731Z,90.50
2018-02-20T04:13:51.025Z,90.50
2018-02-20T04:16:18.241Z,90.70
2018-02-20T04:18:45.902Z,90.80
2018-02-20T04:21:12.600Z,90.70
2018-02-20T04:23:39.263Z,90.70
2018-02-20T04:26:06.012Z,90.70
2018-02-20T04:28:32.495Z,90.60
2018-02-20T04:30:58.954Z,90.80
2018-02-20T04:33:25.909Z,90.80
2018-02-20T04:35:52.336Z,90.60
2018-02-20T04:38:18.875Z,90.60
2018-02-20T04:40:45.582Z,90.60
2018-02-20T04:43:12.332Z,90.70
2018-02-20T04:45:38.851Z,90.40
2018-02-20T04:48:06.206Z,90.50
2018-02-20T04:50:33.520Z,90.50
2018-02-20T04:53:00.325Z,90.70
2018-02-20T04:55:26.782Z,90.80
2018-02-20T04:57:53.260Z,90.70
2018-02-20T05:00:19.908Z,90.80
2018-02-20T05:02:46.478Z,90.40
2018-02-20T05:05:12.903Z,90.60
2018-02-20T05:07:40.243Z,90.70
2018-02-20T05:10:06.727Z,90.90
2018-02-20T05:12:33.177Z,90.70
2018-02-20T05:14:59.766Z,90.90
2018-02-20T05:17:26.265Z,90.70
2018-02-20T05:19:52.766Z,90.60
2018-02-20T05:22:19.355Z,90.50
2018-02-20T05:24:46.590Z,90.70
2018-02-20T05:27:13.023Z,90.60
2018-02-20T05:29:39.708Z,90.70
2018-02-20T05:32:07.006Z,90.90
2018-02-20T05:34:33.599Z,90.80
2018-02-20T05:37:00.410Z,91.00
2018-02-20T05:39:26.870Z,90.60
2018-02-20T05:41:53.383Z,90.90
2018-02-20T05:44:20.588Z,90.70
2018-02-20T05:46:47.097Z,90.60
2018-02-20T05:49:13.578Z,90.80
2018-02-20T05:51:40.060Z,90.70
2018-02-20T05:56:40.309Z,91.10
2018-02-20T05:59:06.821Z,91.00
2018-02-20T06:01:33.276Z,90.80
2018-02-20T06:03:59.723Z,91.00
2018-02-20T06:06:26.509Z,91.40
2018-02-20T06:08:52.925Z,91.50
2018-02-20T06:11:19.527Z,91.20
2018-02-20T06:13:46.091Z,90.60
2018-02-20T06:16:12.693Z,91.10
2018-02-20T06:18:40.014Z,90.50
2018-02-20T06:21:06.900Z,90.80
2018-02-20T06:23:33.358Z,90.40
2018-02-20T06:25:59.811Z,91.10
2018-02-20T06:28:26.244Z,90.70
2018-02-20T06:30:52.810Z,91.00
2018-02-20T06:33:20.158Z,90.80
2018-02-20T06:35:46.753Z,90.80
2018-02-20T06:38:13.333Z,90.50
2018-02-20T06:40:39.947Z,90.10
2018-02-20T06:43:06.542Z,90.20
2018-02-20T06:45:33.031Z,90.40
2018-02-20T06:47:59.989Z,90.10
2018-02-20T06:50:27.199Z,90.90
2018-02-20T06:52:54.394Z,90.50
2018-02-20T06:55:21.010Z,90.40
2018-02-20T06:57:47.557Z,90.30
2018-02-20T07:00:14.084Z,90.70
2018-02-20T07:02:41.658Z,90.40
2018-02-20T07:05:08.866Z,90.00
2018-02-20T07:07:36.084Z,89.90
2018-02-20T07:10:03.477Z,90.10
2018-02-20T07:12:29.942Z,90.40
2018-02-20T07:14:56.444Z,90.40
2018-02-20T07:17:23.108Z,90.10
2018-02-20T07:19:49.572Z,90.20
2018-02-20T07:22:16.099Z,90.00
2018-02-20T07:24:44.398Z,90.00
2018-02-20T07:27:10.897Z,90.00
2018-02-20T07:29:37.402Z,89.60
2018-02-20T07:32:03.976Z,89.30
2018-02-20T07:34:30.574Z,89.20
2018-02-20T07:36:57.164Z,87.80
2018-02-20T07:39:23.776Z,88.10
2018-02-20T07:41:50.300Z,89.40
2018-02-20T07:44:16.803Z,88.50
2018-02-20T07:46:43.259Z,87.60
2018-02-20T07:49:09.819Z,88.60
2018-02-20T07:51:36.260Z,88.50
2018-02-20T07:54:02.859Z,87.50
2018-02-20T07:56:29.268Z,86.80
2018-02-20T07:58:55.808Z,87.70
2018-02-20T08:01:22.385Z,85.60
2018-02-20T08:03:49.638Z,85.10
2018-02-20T08:06:16.252Z,85.00
2018-02-20T08:08:42.823Z,87.10
2018-02-20T08:11:09.384Z,85.50
2018-02-20T08:13:35.968Z,85.50
2018-02-20T08:16:02.498Z,85.60
2018-02-20T08:18:29.005Z,86.30
2018-02-20T08:20:55.484Z,86.80
2018-02-20T08:23:22.828Z,87.10
2018-02-20T08:25:50.282Z,87.10
2018-02-20T08:28:24.063Z,86.90
2018-02-20T08:30:50.532Z,85.10
2018-02-20T08:33:16.968Z,86.00
2018-02-20T08:35:43.595Z,86.10
2018-02-20T08:38:10.269Z,85.40
2018-02-20T08:40:37.670Z,83.40
2018-02-20T08:43:04.133Z,83.40
2018-02-20T08:45:30.639Z,82.90
2018-02-20T08:47:57.129Z,83.90
2018-02-20T08:50:23.730Z,84.00
2018-02-20T08:52:50.174Z,84.20
2018-02-20T08:55:16.693Z,81.50
2018-02-20T08:57:43.260Z,82.30
2018-02-20T09:00:09.897Z,83.50
2018-02-20T09:02:36.529Z,82.90
2018-02-20T09:05:03.225Z,81.60
2018-02-20T09:07:29.713Z,82.00
2018-02-20T09:09:56.500Z,82.40
2018-02-20T09:12:23.813Z,81.40
2018-02-20T09:14:50.236Z,81.10
2018-02-20T09:17:16.719Z,81.30
2018-02-20T09:19:44.150Z,79.50
2018-02-20T09:22:10.827Z,79.60
2018-02-20T09:24:38.112Z,79.30
2018-02-20T09:27:04.628Z,79.30
2018-02-20T09:29:31.164Z,77.90
2018-02-20T09:31:57.942Z,78.60
2018-02-20T09:34:25.436Z,77.30
2018-02-20T09:36:52.708Z,77.30
2018-02-20T09:39:19.247Z,77.20
2018-02-20T09:41:46.192Z,76.30
2018-02-20T09:44:12.679Z,74.60
2018-02-20T09:46:39.082Z,74.00
2018-02-20T09:49:05.882Z,74.30
2018-02-20T09:51:33.317Z,75.40
2018-02-20T09:53:59.870Z,75.30
2018-02-20T09:56:26.417Z,74.70
2018-02-20T09:58:53.697Z,72.50
2018-02-20T10:01:20.301Z,72.50
2018-02-20T10:03:47.640Z,72.00
2018-02-20T10:06:15.058Z,71.70
2018-02-20T10:08:41.454Z,68.80
2018-02-20T10:11:08.673Z,71.30
2018-02-20T10:13:35.205Z,71.20
2018-02-20T10:16:02.596Z,68.90
2018-02-20T10:18:29.852Z,68.80
2018-02-20T10:20:56.336Z,68.70
2018-02-20T10:23:22.924Z,70.70
2018-02-20T10:25:50.639Z,72.10
2018-02-20T10:28:17.299Z,72.10
2018-02-20T10:30:44.500Z,72.40
2018-02-20T10:33:10.973Z,72.20
2018-02-20T10:35:37.406Z,72.50
2018-02-20T10:38:05.699Z,73.40
2018-02-20T10:40:33.208Z,71.10
2018-02-20T10:42:59.642Z,71.00
2018-02-20T10:45:26.023Z,73.00
2018-02-20T10:47:52.609Z,71.00
2018-02-20T10:50:19.689Z,71.40
2018-02-20T10:52:46.309Z,72.50
2018-02-20T10:55:13.794Z,72.80
2018-02-20T10:57:40.238Z,72.50
2018-02-20T11:00:07.305Z,72.90
2018-02-20T11:02:34.677Z,72.70
2018-02-20T11:05:01.272Z,72.70
2018-02-20T11:07:27.945Z,70.90
2018-02-20T11:09:54.556Z,74.00
2018-02-20T11:12:21.100Z,71.10
2018-02-20T11:14:47.758Z,73.30
2018-02-20T11:17:14.314Z,72.90
2018-02-20T11:19:40.954Z,71.30
2018-02-20T11:22:07.596Z,72.00
2018-02-20T11:24:34.334Z,71.30
2018-02-20T11:27:00.783Z,71.50
2018-02-20T11:29:27.287Z,71.70
2018-02-20T11:31:53.760Z,70.30
2018-02-20T11:34:20.355Z,69.00
2018-02-20T11:36:47.186Z,69.50
2018-02-20T11:39:14.482Z,70.70
2018-02-20T11:41:40.936Z,70.60
2018-02-20T11:44:08.388Z,71.50
2018-02-20T11:46:35.031Z,71.40
2018-02-20T11:49:01.626Z,68.60
2018-02-20T11:51:28.147Z,68.00
2018-02-20T11:53:54.667Z,67.10
2018-02-20T11:56:21.666Z,67.10
2018-02-20T11:58:48.409Z,67.10
2018-02-20T12:01:14.881Z,67.70
2018-02-20T12:03:41.473Z,65.30
2018-02-20T12:06:08.072Z,65.30
2018-02-20T12:08:35.820Z,65.50
2018-02-20T12:11:03.201Z,65.70
2018-02-20T12:13:29.711Z,65.70
2018-02-20T12:15:57.068Z,68.00
2018-02-20T12:18:26.079Z,66.00
2018-02-20T12:20:54.032Z,66.70
2018-02-20T12:23:20.733Z,66.70
2018-02-20T12:25:48.113Z,66.50
2018-02-20T12:28:14.637Z,66.40
2018-02-20T12:30:41.367Z,67.50
2018-02-20T12:33:07.979Z,67.20
2018-02-20T12:35:34.449Z,69.00
2018-02-20T12:38:00.985Z,67.60
2018-02-20T12:40:27.503Z,69.00
2018-02-20T12:42:54.029Z,67.70
2018-02-20T12:45:20.741Z,68.50
2018-02-20T12:47:47.673Z,68.60
2018-02-20T12:50:14.218Z,68.70
2018-02-20T12:52:40.903Z,68.70
2018-02-20T12:55:07.800Z,67.60
2018-02-20T12:57:34.413Z,67.50
2018-02-20T13:00:01.343Z,69.80
2018-02-20T13:02:27.890Z,67.40
2018-02-20T13:04:54.402Z,65.80
2018-02-20T13:07:20.882Z,67.10
2018-02-20T13:09:47.432Z,63.00
2018-02-20T13:12:13.997Z,60.20
2018-02-20T13:14:40.603Z,60.20
2018-02-20T13:17:08.062Z,62.10
2018-02-20T13:19:34.755Z,64.90
2018-02-20T13:22:02.131Z,68.10
2018-02-20T13:24:28.634Z,70.10
2018-02-20T13:26:56.104Z,72.10
2018-02-20T13:29:22.864Z,72.00
2018-02-20T13:31:49.380Z,71.00
2018-02-20T13:34:16.764Z,68.60
2018-02-20T13:36:43.574Z,67.80
2018-02-20T13:39:10.232Z,69.80
2018-02-20T13:41:36.686Z,69.50
2018-02-20T13:44:03.161Z,70.10
2018-02-20T13:46:30.363Z,71.40
2018-02-20T13:48:57.274Z,69.10
2018-02-20T13:51:23.708Z,67.50
2018-02-20T13:53:51.073Z,68.90
2018-02-20T13:56:17.657Z,68.80
2018-02-20T13:58:44.224Z,70.70
2018-02-20T14:01:11.457Z,69.90
2018-02-20T14:03:38.195Z,70.30
2018-02-20T14:06:06.494Z,70.00
2018-02-20T14:08:33.617Z,69.80
2018-02-20T14:11:01.311Z,70.90
2018-02-20T14:13:27.954Z,70.80
2018-02-20T14:15:54.469Z,69.80
2018-02-20T14:18:20.937Z,71.40
2018-02-20T14:20:47.458Z,70.70
2018-02-20T14:23:14.137Z,70.70
2018-02-20T14:25:40.549Z,73.20
2018-02-20T14:28:07.041Z,73.00
2018-02-20T14:30:34.488Z,73.00
2018-02-20T14:33:01.720Z,73.20
2018-02-20T14:35:28.192Z,73.20
2018-02-20T14:37:55.454Z,72.30
2018-02-20T14:40:21.920Z,72.20
2018-02-20T14:42:48.430Z,74.70
2018-02-20T14:45:15.643Z,73.20
2018-02-20T14:47:42.099Z,74.40
2018-02-20T14:50:08.679Z,75.30
2018-02-20T14:52:35.192Z,75.00
2018-02-20T14:55:02.110Z,75.90
2018-02-20T14:57:28.609Z,76.10
2018-02-20T14:59:56.166Z,75.10
2018-02-20T15:02:23.265Z,73.80
2018-02-20T15:04:50.007Z,72.80
2018-02-20T15:07:16.854Z,75.80
2018-02-20T15:09:43.407Z,73.70
2018-02-20T15:12:10.146Z,72.90
2018-02-20T15:14:36.714Z,73.00
2018-02-20T15:17:03.228Z,74.90
2018-02-20T15:19:30.737Z,75.10
2018-02-20T15:21:58.124Z,72.80
2018-02-20T15:24:24.658Z,72.70
2018-02-20T15:26:51.194Z,72.30
2018-02-20T15:29:17.709Z,73.20
2018-02-20T15:31:44.454Z,73.10
2018-02-20T15:34:11.224Z,72.90
2018-02-20T15:36:37.718Z,74.40
2018-02-20T15:39:04.388Z,75.70
2018-02-20T15:41:30.926Z,74.50
2018-02-20T15:43:57.628Z,73.70
2018-02-20T15:46:24.867Z,74.60
2018-02-20T15:48:51.548Z,74.60
2018-02-20T15:51:18.411Z,75.90
2018-02-20T15:53:45.374Z,75.20
2018-02-20T15:56:11.891Z,74.50
2018-02-20T15:58:39.684Z,73.10
2018-02-20T16:01:06.353Z,74.50
2018-02-20T16:03:32.820Z,73.80
2018-02-20T16:05:59.797Z,74.40
2018-02-20T16:08:26.245Z,73.90
2018-02-20T16:10:52.828Z,74.00
2018-02-20T16:13:20.428Z,73.70
2018-02-20T16:16:01.782Z,73.50
2018-02-20T16:18:28.787Z,75.00
2018-02-20T16:20:55.328Z,74.10
2018-02-20T16:23:21.799Z,71.90
2018-02-20T16:25:48.458Z,73.60
2018-02-20T16:28:14.947Z,71.30
2018-02-20T16:30:41.998Z,70.00
2018-02-20T16:33:10.551Z,71.40
2018-02-20T16:35:37.371Z,71.30
2018-02-20T16:38:03.931Z,71.50
2018-02-20T16:40:30.672Z,69.60
2018-02-20T16:42:57.261Z,70.30
2018-02-20T16:45:23.757Z,70.70
2018-02-20T16:47:50.675Z,70.20
2018-02-20T16:50:18.995Z,70.40
2018-02-20T16:52:46.308Z,71.70
2018-02-20T16:55:12.875Z,71.60
2018-02-20T16:57:39.647Z,70.60
2018-02-20T17:00:06.137Z,70.10
2018-02-20T17:02:32.661Z,70.50
2018-02-20T17:04:59.368Z,70.20
2018-02-20T17:07:25.854Z,70.30
2018-02-20T17:09:52.384Z,70.20
2018-02-20T17:12:19.151Z,70.40
2018-02-20T17:14:45.654Z,71.30
2018-02-20T17:17:12.369Z,71.20
2018-02-20T17:19:38.902Z,71.70
2018-02-20T17:22:06.144Z,70.90
2018-02-20T17:24:32.675Z,70.70
2018-02-20T17:26:59.733Z,71.50
2018-02-20T17:29:26.472Z,72.60
2018-02-20T17:31:53.120Z,72.40
2018-02-20T17:34:19.648Z,73.00
2018-02-20T17:36:46.105Z,71.70
2018-02-20T17:39:12.514Z,71.80
2018-02-20T17:41:39.581Z,71.40
2018-02-20T17:44:06.935Z,73.50
2018-02-20T17:46:33.547Z,73.40
2018-02-20T17:49:00.206Z,73.50
2018-02-20T17:51:26.689Z,73.80
2018-02-20T17:53:56.697Z,73.90
2018-02-20T17:56:24.790Z,73.50
2018-02-20T17:58:55.713Z,72.40
2018-02-20T18:01:22.394Z,72.40
2018-02-20T18:03:49.327Z,74.00
2018-02-20T18:06:15.849Z,73.50
2018-02-20T18:08:43.769Z,73.30
2018-02-20T18:11:10.884Z,73.10
2018-02-20T18:13:37.315Z,74.20
2018-02-20T18:16:03.925Z,74.70
2018-02-20T18:18:30.727Z,75.70
2018-02-20T18:20:57.471Z,75.10
2018-02-20T18:23:23.948Z,75.80
2018-02-20T18:25:50.766Z,75.40
2018-02-20T18:28:18.073Z,75.50
2018-02-20T18:30:44.572Z,75.50
2018-02-20T18:35:44.635Z,78.20
2018-02-20T18:38:11.257Z,77.10
2018-02-20T18:40:38.510Z,77.60
2018-02-20T18:43:05.160Z,77.60
2018-02-20T18:45:31.561Z,78.30
2018-02-20T18:47:58.277Z,78.30
2018-02-20T18:50:24.866Z,77.70
2018-02-20T18:52:51.449Z,77.40
2018-02-20T18:55:17.933Z,76.70
2018-02-20T18:57:44.574Z,77.20
2018-02-20T19:00:11.931Z,77.10
2018-02-20T19:02:38.398Z,77.00
2018-02-20T19:05:05.045Z,78.50
2018-02-20T19:07:31.490Z,79.00
2018-02-20T19:09:57.997Z,78.90
2018-02-20T19:12:24.456Z,79.60
2018-02-20T19:14:51.022Z,78.30
2018-02-20T19:17:17.520Z,79.80
2018-02-20T19:19:44.076Z,79.40
2018-02-20T19:22:10.685Z,79.40
2018-02-20T19:24:37.180Z,78.80
2018-02-20T19:27:04.341Z,79.10
2018-02-20T19:29:30.917Z,79.00
2018-02-20T19:31:57.689Z,79.30
2018-02-20T19:34:24.190Z,78.80
2018-02-20T19:36:50.728Z,79.20
2018-02-20T19:39:17.536Z,78.90
2018-02-20T19:41:44.057Z,78.90
2018-02-20T19:44:10.503Z,79.40
2018-02-20T19:46:37.759Z,80.70
2018-02-20T19:49:11.200Z,80.70
2018-02-20T19:51:38.490Z,80.80
2018-02-20T19:54:05.714Z,81.80
2018-02-20T19:56:32.166Z,81.80
2018-02-20T19:58:58.724Z,82.20
2018-02-20T20:01:25.213Z,82.10
2018-02-20T20:03:52.598Z,82.60
2018-02-20T20:06:20.601Z,82.50
2018-02-20T20:08:47.137Z,82.40
2018-02-20T20:11:13.672Z,83.00
2018-02-20T20:13:40.914Z,83.30
2018-02-20T20:16:07.399Z,83.30
2018-02-20T20:18:34.600Z,83.40
2018-02-20T20:21:01.933Z,83.80
2018-02-20T20:23:29.194Z,85.10
2018-02-20T20:25:55.693Z,84.30
2018-02-20T20:28:22.196Z,84.70
2018-02-20T20:30:48.785Z,85.20
2018-02-20T20:33:15.586Z,85.10
2018-02-20T20:35:42.032Z,85.50
2018-02-20T20:38:08.649Z,86.40
2018-02-20T20:40:35.106Z,85.80
2018-02-20T20:43:01.647Z,85.90
2018-02-20T20:45:28.138Z,85.80
2018-02-20T20:47:55.369Z,85.80
2018-02-20T20:50:21.805Z,85.80
2018-02-20T20:52:48.973Z,84.90
2018-02-20T20:55:15.439Z,84.80
2018-02-20T20:57:41.921Z,85.40
2018-02-20T21:00:08.387Z,84.50
2018-02-20T21:02:34.861Z,85.10
2018-02-20T21:05:01.279Z,85.90
2018-02-20T21:07:27.837Z,86.10
2018-02-20T21:09:54.336Z,86.40
2018-02-20T21:12:20.761Z,86.40
2018-02-20T21:14:47.173Z,85.90
2018-02-20T21:17:13.610Z,85.90
2018-02-20T21:19:40.067Z,86.00
2018-02-20T21:22:06.531Z,86.00
2018-02-20T21:24:33.752Z,86.00
2018-02-20T21:27:00.207Z,86.30
2018-02-20T21:29:26.666Z,86.00
2018-02-20T21:31:53.120Z,85.70
2018-02-20T21:34:20.381Z,84.80
2018-02-20T21:36:46.810Z,84.70
2018-02-20T21:39:13.763Z,84.90
2018-02-20T21:41:40.196Z,85.10
2018-02-20T21:44:07.515Z,84.80
2018-02-20T21:46:33.990Z,84.70
2018-02-20T21:49:00.586Z,85.00
2018-02-20T21:51:27.100Z,84.90
2018-02-20T21:53:53.580Z,85.30
2018-02-20T21:56:20.044Z,85.70
2018-02-20T21:58:46.502Z,85.50
2018-02-20T22:01:13.000Z,85.70
2018-02-20T22:03:39.456Z,85.70
2018-02-20T22:06:06.448Z,85.90
2018-02-20T22:08:32.964Z,85.90
2018-02-20T22:10:59.409Z,84.90
2018-02-20T22:13:25.864Z,85.40
2018-02-20T22:15:52.353Z,85.20
2018-02-20T22:18:18.994Z,85.00
2018-02-20T22:20:45.596Z,86.10
2018-02-20T22:23:12.826Z,85.80
2018-02-20T22:25:39.193Z,85.70
2018-02-20T22:28:06.338Z,87.40
2018-02-20T22:30:32.905Z,87.30
2018-02-20T22:32:59.356Z,85.50
2018-02-20T22:35:25.799Z,85.60
2018-02-20T22:37:52.681Z,86.00
2018-02-20T22:40:19.076Z,86.00
2018-02-20T22:42:46.371Z,85.70
2018-02-20T22:45:14.100Z,86.20
2018-02-20T22:47:40.521Z,86.20
2018-02-20T22:50:06.981Z,86.40
2018-02-20T22:52:33.788Z,86.60
2018-02-20T22:55:00.263Z,85.80
2018-02-20T22:57:26.704Z,86.60
2018-02-20T22:59:53.201Z,86.70
2018-02-20T23:02:19.632Z,87.00
2018-02-20T23:04:46.053Z,86.10
2018-02-20T23:07:12.461Z,86.10
2018-02-20T23:09:38.973Z,85.40
2018-02-20T23:12:05.370Z,86.40
2018-02-20T23:14:31.947Z,86.60
2018-02-20T23:16:58.370Z,85.90
2018-02-20T23:19:24.890Z,86.20
2018-02-20T23:21:51.332Z,86.20
2018-02-20T23:24:18.074Z,86.30
2018-02-20T23:26:44.737Z,87.50
2018-02-20T23:29:12.000Z,87.00
2018-02-20T23:31:38.797Z,86.90
2018-02-20T23:34:05.224Z,87.30
2018-02-20T23:36:31.839Z,87.10
2018-02-20T23:38:59.034Z,87.00
2018-02-20T23:41:25.483Z,87.80
2018-02-20T23:43:52.096Z,87.50
2018-02-20T23:46:18.716Z,88.10
2018-02-20T23:48:45.304Z,88.40
2018-02-20T23:51:18.756Z,87.70
2018-02-20T23:53:45.324Z,87.60
2018-02-20T23:56:11.823Z,87.70
2018-02-20T23:58:38.313Z,87.90
